createdAt,value
2018-10-18T09:46:25.113Z,61.20
2018-10-18T09:48:53.991Z,61.83
2018-10-18T09:51:22.319Z,60.27
2018-10-18T09:53:50.770Z,59.33
2018-10-18T09:56:19.188Z,56.77
2018-10-18T09:58:47.967Z,56.33
2018-10-18T10:01:21.869Z,55.97
2018-10-18T10:03:50.451Z,55.70
2018-10-18T10:06:18.756Z,54.93
2018-10-18T10:08:47.179Z,54.80
2018-10-18T10:11:16.046Z,53.10
2018-10-18T10:13:44.939Z,54.93
2018-10-18T10:16:13.710Z,54.70
2018-10-18T10:18:42.688Z,55.30
2018-10-18T10:21:11.394Z,53.33
2018-10-18T10:23:39.752Z,55.90
2018-10-18T10:26:08.202Z,54.10
2018-10-18T10:28:36.653Z,53.80
2018-10-18T10:31:05.026Z,52.60
2018-10-18T10:33:34.101Z,50.77
2018-10-18T10:36:02.245Z,52.17
2018-10-18T10:38:30.437Z,52.33
2018-10-18T10:40:59.365Z,50.00
2018-10-18T10:43:28.204Z,50.33
2018-10-18T10:45:56.616Z,51.20
2018-10-18T10:48:25.130Z,51.60
2018-10-18T10:50:53.462Z,52.80
2018-10-18T10:53:22.411Z,48.67
2018-10-18T10:55:51.450Z,50.80
2018-10-18T10:58:19.869Z,53.27
2018-10-18T11:01:21.989Z,52.90
2018-10-18T11:03:51.603Z,50.63
2018-10-18T11:06:20.014Z,51.87
2018-10-18T11:08:48.144Z,50.53
2018-10-18T11:11:17.483Z,49.83
2018-10-18T11:13:45.927Z,49.60
2018-10-18T11:16:14.267Z,48.40
2018-10-18T11:18:42.747Z,46.50
2018-10-18T11:21:12.730Z,47.80
2018-10-18T11:23:41.089Z,44.17
2018-10-18T11:26:09.526Z,43.40
2018-10-18T11:28:38.017Z,45.40
2018-10-18T11:31:06.020Z,47.63
2018-10-18T11:33:34.076Z,44.93
2018-10-18T11:36:02.573Z,45.83
2018-10-18T11:38:31.084Z,44.47
2018-10-18T11:40:59.764Z,45.90
2018-10-18T11:43:28.079Z,47.03
2018-10-18T11:45:56.754Z,44.47
2018-10-18T11:48:25.450Z,44.23
2018-10-18T11:50:53.986Z,46.63
2018-10-18T11:53:22.393Z,45.10
2018-10-18T11:55:50.839Z,46.37
2018-10-18T11:58:19.627Z,45.87
2018-10-18T12:00:48.653Z,45.17
2018-10-18T12:03:17.002Z,44.63
2018-10-18T12:05:45.668Z,46.53
2018-10-18T12:08:14.149Z,45.47
2018-10-18T12:10:42.720Z,45.73
2018-10-18T12:13:11.411Z,44.23
2018-10-18T12:15:40.107Z,47.07
2018-10-18T12:18:08.702Z,42.40
2018-10-18T12:20:38.157Z,44.70
2018-10-18T12:23:06.285Z,44.50
2018-10-18T12:25:34.828Z,44.70
2018-10-18T12:28:03.253Z,44.87
2018-10-18T12:30:31.942Z,44.07
2018-10-18T12:33:00.688Z,44.57
2018-10-18T12:35:29.324Z,44.80
2018-10-18T12:37:58.087Z,45.53
2018-10-18T12:40:26.574Z,43.40
2018-10-18T12:42:55.075Z,44.13
2018-10-18T12:45:23.384Z,40.60
2018-10-18T12:47:51.753Z,45.03
2018-10-18T12:50:20.340Z,45.97
2018-10-18T12:52:48.991Z,47.90
2018-10-18T12:55:17.692Z,43.10
2018-10-18T12:57:46.108Z,42.63
2018-10-18T13:00:14.558Z,44.17
2018-10-18T13:02:43.350Z,43.57
2018-10-18T13:05:12.004Z,46.70
2018-10-18T13:07:40.027Z,45.33
2018-10-18T13:10:09.590Z,45.50
2018-10-18T13:12:38.121Z,46.30
2018-10-18T13:15:07.435Z,44.57
2018-10-18T13:17:35.768Z,44.70
2018-10-18T13:20:04.163Z,45.20
2018-10-18T13:22:32.983Z,45.37
2018-10-18T13:25:01.388Z,46.83
2018-10-18T13:27:29.968Z,45.27
2018-10-18T13:29:58.463Z,44.80
2018-10-18T13:32:27.282Z,45.10
2018-10-18T13:34:55.276Z,44.50
2018-10-18T13:37:24.044Z,47.27
2018-10-18T13:39:52.764Z,46.73
2018-10-18T13:42:21.468Z,46.90
2018-10-18T13:44:49.482Z,45.67
2018-10-18T13:47:17.824Z,45.87
2018-10-18T13:49:46.165Z,45.67
2018-10-18T13:52:14.411Z,46.63
2018-10-18T13:54:43.053Z,46.80
2018-10-18T13:57:11.720Z,47.40
2018-10-18T13:59:51.477Z,45.67
2018-10-18T14:02:20.395Z,47.30
2018-10-18T14:04:49.224Z,47.70
2018-10-18T14:07:17.902Z,48.03
2018-10-18T14:09:46.248Z,46.43
2018-10-18T14:12:14.236Z,45.00
2018-10-18T14:14:42.880Z,43.43
2018-10-18T14:17:10.964Z,44.57
2018-10-18T14:19:39.701Z,46.03
2018-10-18T14:22:08.362Z,45.17
2018-10-18T14:24:36.696Z,43.03
2018-10-18T14:27:04.940Z,47.67
2018-10-18T14:29:33.300Z,48.27
2018-10-18T14:32:01.760Z,47.90
2018-10-18T14:34:30.583Z,45.37
2018-10-18T14:36:59.237Z,47.47
2018-10-18T14:39:27.904Z,44.23
2018-10-18T14:41:57.256Z,46.20
2018-10-18T14:44:25.823Z,43.70
2018-10-18T14:46:54.251Z,45.57
2018-10-18T14:49:23.225Z,46.13
2018-10-18T14:51:51.891Z,43.40
2018-10-18T14:54:20.539Z,45.17
2018-10-18T14:56:48.875Z,46.03
2018-10-18T14:59:17.122Z,44.47
2018-10-18T15:01:45.504Z,43.33
2018-10-18T15:04:13.962Z,43.90
2018-10-18T15:06:42.413Z,43.10
2018-10-18T15:09:11.297Z,43.40
2018-10-18T15:11:40.014Z,42.30
2018-10-18T15:14:08.842Z,43.73
2018-10-18T15:16:37.323Z,40.70
2018-10-18T15:19:05.344Z,44.70
2018-10-18T15:21:33.648Z,43.97
2018-10-18T15:24:02.052Z,43.17
2018-10-18T15:26:30.528Z,42.03
2018-10-18T15:28:59.296Z,39.80
2018-10-18T15:31:27.868Z,40.10
2018-10-18T15:33:56.554Z,40.30
2018-10-18T15:36:25.196Z,39.30
2018-10-18T15:38:53.768Z,40.53
2018-10-18T15:41:22.395Z,41.20
2018-10-18T15:43:51.158Z,38.40
2018-10-18T15:46:19.834Z,40.80
2018-10-18T15:48:48.481Z,40.63
2018-10-18T15:51:17.151Z,37.83
2018-10-18T15:53:46.112Z,39.00
2018-10-18T15:56:14.805Z,35.27
2018-10-18T15:58:43.228Z,39.33
2018-10-18T16:01:11.825Z,37.40
2018-10-18T16:03:40.189Z,39.80
2018-10-18T16:06:09.257Z,35.43
2018-10-18T16:08:38.159Z,38.80
2018-10-18T16:11:06.333Z,37.53
2018-10-18T16:13:36.570Z,36.90
2018-10-18T16:16:05.581Z,38.80
2018-10-18T16:18:34.208Z,34.70
2018-10-18T16:21:02.932Z,35.47
2018-10-18T16:23:31.420Z,36.30
2018-10-18T16:26:00.153Z,37.43
2018-10-18T16:28:28.956Z,39.20
2018-10-18T16:30:57.620Z,40.40
2018-10-18T16:33:26.315Z,39.27
2018-10-18T16:35:54.951Z,36.90
2018-10-18T16:38:23.352Z,36.63
2018-10-18T16:40:51.753Z,36.00
2018-10-18T16:43:21.536Z,35.70
2018-10-18T16:45:50.209Z,35.13
2018-10-18T16:48:18.839Z,34.43
2018-10-18T16:50:47.348Z,32.60
2018-10-18T16:53:15.336Z,30.20
2018-10-18T16:55:43.688Z,32.13
2018-10-18T16:58:11.870Z,33.00
2018-10-18T17:00:40.712Z,30.57
2018-10-18T17:03:09.042Z,28.97
2018-10-18T17:05:37.431Z,30.43
2018-10-18T17:08:05.562Z,32.90
2018-10-18T17:10:34.076Z,30.47
2018-10-18T17:13:02.872Z,30.00
2018-10-18T17:15:31.528Z,27.57
2018-10-18T17:18:00.393Z,25.60
2018-10-18T17:20:28.996Z,21.03
2018-10-18T17:22:57.501Z,19.87
2018-10-18T17:25:26.164Z,22.30
2018-10-18T17:27:54.836Z,18.00
2018-10-18T17:30:22.869Z,17.40
2018-10-18T17:32:51.357Z,18.43
2018-10-18T17:35:20.123Z,17.40
2018-10-18T17:37:48.443Z,17.40
2018-10-18T17:40:17.115Z,17.90
2018-10-18T17:42:45.183Z,17.80
2018-10-18T17:45:13.619Z,18.33
2018-10-18T17:47:42.719Z,20.40
2018-10-18T17:50:11.099Z,20.67
2018-10-18T17:52:39.206Z,23.53
2018-10-18T17:55:07.940Z,21.00
2018-10-18T17:57:36.368Z,22.40
2018-10-18T18:00:07.639Z,20.77
2018-10-18T18:02:35.849Z,21.57
2018-10-18T18:05:03.911Z,18.77
2018-10-18T18:07:31.983Z,19.67
2018-10-18T18:10:00.271Z,19.30
2018-10-18T18:12:28.479Z,19.63
2018-10-18T18:14:56.945Z,20.33
2018-10-18T18:17:25.000Z,18.40
2018-10-18T18:19:53.376Z,19.93
2018-10-18T18:22:21.772Z,19.73
2018-10-18T18:24:50.104Z,20.53
2018-10-18T18:27:18.407Z,18.73
2018-10-18T18:29:47.074Z,19.20
2018-10-18T18:32:15.445Z,19.90
2018-10-18T18:34:44.190Z,19.30
2018-10-18T18:37:12.891Z,20.17
2018-10-18T18:39:41.581Z,18.40
2018-10-18T18:42:09.938Z,17.63
2018-10-18T18:44:38.596Z,17.83
2018-10-18T18:47:06.632Z,19.93
2018-10-18T18:49:35.289Z,20.77
2018-10-18T18:52:03.676Z,21.00
2018-10-18T18:54:32.848Z,19.10
2018-10-18T18:57:01.268Z,19.10
2018-10-18T18:59:29.804Z,17.73
2018-10-18T19:01:58.776Z,18.60
2018-10-18T19:04:26.838Z,17.50
2018-10-18T19:06:55.276Z,16.50
2018-10-18T19:09:23.908Z,18.50
2018-10-18T19:11:52.672Z,16.97
2018-10-18T19:14:22.182Z,16.00
2018-10-18T19:16:50.320Z,15.43
2018-10-18T19:19:19.583Z,15.17
2018-10-18T19:21:48.253Z,15.50
2018-10-18T19:24:16.895Z,13.10
2018-10-18T19:26:44.977Z,12.70
2018-10-18T19:29:13.337Z,11.77
2018-10-18T19:31:42.076Z,10.60
2018-10-18T19:34:10.085Z,10.17
2018-10-18T19:36:38.670Z,10.20
2018-10-18T19:39:07.266Z,11.23
2018-10-18T19:41:35.661Z,9.90
2018-10-18T19:44:03.754Z,10.00
2018-10-18T19:46:32.299Z,9.47
2018-10-18T19:49:00.811Z,9.17
2018-10-18T19:51:29.682Z,9.63
2018-10-18T19:53:58.032Z,9.23
2018-10-18T19:56:26.438Z,8.40
2018-10-18T19:58:55.840Z,8.77
2018-10-18T20:01:24.600Z,8.83
2018-10-18T20:03:53.309Z,9.37
2018-10-18T20:06:21.703Z,7.83
2018-10-18T20:08:50.045Z,7.77
2018-10-18T20:11:18.389Z,8.50
2018-10-18T20:13:47.104Z,8.50
2018-10-18T20:16:15.430Z,9.53
2018-10-18T20:18:43.396Z,9.00
2018-10-18T20:21:12.176Z,8.50
2018-10-18T20:23:40.958Z,8.93
2018-10-18T20:26:09.502Z,8.20
2018-10-18T20:28:38.158Z,8.10
2018-10-18T20:31:06.784Z,8.07
2018-10-18T20:33:35.427Z,8.37
2018-10-18T20:36:03.750Z,8.20
2018-10-18T20:38:32.277Z,8.20
2018-10-18T20:41:00.408Z,7.33
2018-10-18T20:43:29.226Z,7.17
2018-10-18T20:45:57.297Z,7.60
2018-10-18T20:48:26.108Z,6.53
2018-10-18T20:50:54.845Z,6.70
2018-10-18T20:53:23.719Z,5.70
2018-10-18T20:55:52.052Z,6.73
2018-10-18T20:58:20.409Z,5.90
2018-10-18T21:00:49.049Z,6.17
2018-10-18T21:03:17.597Z,6.20
2018-10-18T21:05:46.015Z,4.80
2018-10-18T21:08:14.439Z,5.87
2018-10-18T21:10:43.152Z,5.77
2018-10-18T21:13:11.976Z,4.90
2018-10-18T21:15:40.442Z,4.83
2018-10-18T21:18:08.836Z,4.90
2018-10-18T21:20:37.653Z,4.50
2018-10-18T21:23:05.990Z,4.07
2018-10-18T21:25:34.573Z,3.63
2018-10-18T21:28:03.019Z,4.40
2018-10-18T21:30:32.065Z,3.70
2018-10-18T21:33:00.158Z,4.10
2018-10-18T21:35:28.689Z,3.87
2018-10-18T21:37:57.387Z,3.37
2018-10-18T21:40:25.685Z,2.87
2018-10-18T21:42:54.340Z,3.30
2018-10-18T21:45:22.501Z,2.97
2018-10-18T21:47:50.929Z,3.27
2018-10-18T21:50:19.292Z,3.30
2018-10-18T21:52:48.080Z,3.77
2018-10-18T21:55:16.796Z,3.50
2018-10-18T21:57:44.751Z,3.67
2018-10-18T22:00:13.595Z,3.40
2018-10-18T22:02:42.469Z,3.30
2018-10-18T22:05:10.828Z,3.50
2018-10-18T22:07:39.016Z,2.87
2018-10-18T22:10:06.997Z,3.33
2018-10-18T22:12:35.605Z,2.97
2018-10-18T22:15:04.131Z,2.97
2018-10-18T22:17:32.937Z,3.07
2018-10-18T22:20:01.362Z,2.60
2018-10-18T22:22:29.347Z,3.00
2018-10-18T22:24:57.680Z,2.83
2018-10-18T22:27:26.085Z,2.87
2018-10-18T22:29:54.768Z,2.87
2018-10-18T22:32:22.740Z,3.60
2018-10-18T22:34:51.453Z,2.53
2018-10-18T22:37:19.869Z,2.70
2018-10-18T22:39:48.356Z,3.00
2018-10-18T22:42:16.648Z,2.70
2018-10-18T22:44:45.341Z,3.00
2018-10-18T22:47:13.730Z,3.20
2018-10-18T22:49:42.177Z,2.83
2018-10-18T22:52:10.687Z,2.70
2018-10-18T22:54:39.368Z,2.60
2018-10-18T22:57:07.415Z,2.70
2018-10-18T22:59:36.237Z,2.67
2018-10-18T23:02:04.309Z,2.73
2018-10-18T23:04:33.271Z,3.37
2018-10-18T23:07:01.613Z,3.37
2018-10-18T23:09:29.932Z,2.50
2018-10-18T23:11:58.319Z,2.60
2018-10-18T23:14:26.392Z,2.63
2018-10-18T23:16:55.377Z,2.50
2018-10-18T23:19:24.160Z,3.10
2018-10-18T23:21:52.860Z,3.40
2018-10-18T23:24:21.544Z,2.70
2018-10-18T23:26:49.840Z,2.80
2018-10-18T23:29:18.178Z,3.20
2018-10-18T23:31:46.703Z,2.57
2018-10-18T23:34:15.075Z,3.10
2018-10-18T23:36:43.103Z,2.80
2018-10-18T23:39:11.555Z,2.80
2018-10-18T23:41:40.033Z,2.53
2018-10-18T23:44:08.333Z,3.13
2018-10-18T23:46:37.080Z,3.00
2018-10-18T23:49:05.765Z,2.73
2018-10-18T23:51:34.400Z,2.70
2018-10-18T23:54:03.059Z,2.77
2018-10-18T23:56:31.718Z,2.77
2018-10-18T23:59:00.166Z,3.70
